Keswick, IA

1:52 AM CDT on May 05, 2015 (GMT -0500)
Dietze Weather Station | | Change Station
CLOSE
Current Station
Personal Weather Station
Location: Millersburg, IA
Elevation: 883 ft
Nearby Weather Stations
Active Advisory: Special Statement

Elev 883 ft 41.57 °N, 92.16 °W | Updated 30 seconds ago

Rain
Rain
62.6 °F
Feels Like 62.6 °F
N
5.1
Wind Variable Wind from East
Gusts 7.4 mph

Today
High -- | Low -- °F
--% Chance of Precip.
Yesterday
High -- | Low -- °F
Precip. -- in
6:01 AM 8:10 PM
Full, 99% visible
Pressure 30.07 in
Visibility 10.0 miles
Clouds Scattered Clouds 4800 ft
Scattered Clouds 6000 ft
Overcast 9500 ft
Dew Point 61 °F
Humidity 95%
Rainfall 0.30 in
Snow Depth Not available.
UV 0.0 out of 12
Pollen 1.80 out of 12
Air Quality Not available.
Flu Activity Local Activity
METAR KOOA 050635Z AUTO 09005KT 10SM RA SCT048 SCT060 OVC095 15/14 A3007 RMK AO2 P0006 T01530140

More Conditions Fewer Conditions

Pressure 30.07 in
Visibility 10.0 miles
Clouds Scattered Clouds 4800 ft
Scattered Clouds 6000 ft
Overcast 9500 ft
Dew Point 61 °F
Humidity 95%
Rainfall 0.30 in
Snow Depth Not available.
UV 0.0 out of 12
Pollen 1.80 out of 12
Air Quality Not available.
Flu Activity Local Activity
METAR KOOA 050635Z AUTO 09005KT 10SM RA SCT048 SCT060 OVC095 15/14 A3007 RMK AO2 P0006 T01530140

More Conditions Fewer Conditions

Nepal has a long way to go to dig out and rebuild from a devastating earthquake. We have teamed up with several charities and organizations to make contributing to the relief effort as easy as possible.
How you can help: Portlight Strategies | Red Cross

10-Day Weather Forecast

Almanac

Astronomy

May. 05, 2015 Rise Set
Actual Time
Civil Twilight
Nautical Twilight
Astronomical Twilight
Moon
Length of Visible Light
Length of Day
Tomorrow will be .
, % of the Moon is Illuminated

Today's Extremes

State Highs State Lows

Community

WunderPhotos

Upload Photos

1,818,814 photos uploaded!

WunderBlogs® & News

Nearby

Air Quality

  Air Quality AQ Index Pollutant
Not available.

Snow Depth

Station Depth Elevation

Earthquake Activity

City Distance Mag. Time & Date
Minimum magnitude displayed is 2.5.

Coastal Water Temperatures

Place Temperature

Stations

Nearby Weather Stations

Station Location Temp. Windchill Dew Point Humidity Wind Precip. Elev Updated Type
                   
Special Statement
Statement as of 9:52 PM CDT on May 04, 2015

... Periods of showers and thunderstorms with locally heavy
rainfall until at least 4 am...

A large area of showers and thunderstorms will affect the region
through at least 4 am. Mostly light to moderate rainfall rates
will be the case with brief periods of heavy rainfall rates. Most
locations will pick up at least a half inch of more of rain with
areas of over 1 inch expected. Locally over 2 inches is possible.
Minor water issues in low lying locations can be expected. Additional
rains may continue well into late Tuesday morning. Areas prone to
water issues should be monitored.


Nichols